Time;durP1;ratioP1;P1;durP2;ratioP2;P2;SDS_P1;SDS_P2;PMS_P1;PMS_P2;Temp;Humidity;BMP_temperature;BMP_pressure;BME280_temperature;BME280_humidity;BME280_pressure;Samples;Min_cycle;Max_cycle;Signal;HPM_P1;HPM_P2
2021/11/21 00:09:50;;;;;;;10.30;7.60;;;;;;;7.36;82.55;99026.89;420683;1309;142370;-62
2021/11/21 00:19:56;;;;;;;11.90;9.60;;;;;;;7.33;82.33;99020.47;419748;1309;141579;-62
2021/11/21 00:30:02;;;;;;;13.40;9.90;;;;;;;7.30;82.38;99016.65;419560;1309;141896;-62
2021/11/21 00:40:10;;;;;;;12.40;9.50;;;;;;;7.31;82.26;99015.02;420063;1309;141320;-62
2021/11/21 00:50:23;;;;;;;11.20;9.30;;;;;;;7.31;81.97;99010.14;421275;1312;141395;-63
2021/11/21 01:00:30;;;;;;;10.30;9.10;;;;;;;7.29;81.88;98994.73;420139;1309;140919;-63
2021/11/21 01:10:36;;;;;;;11.70;10.30;;;;;;;7.26;81.64;98986.00;433331;1304;141684;-62
2021/11/21 01:20:43;;;;;;;11.10;8.50;;;;;;;7.24;81.36;98973.25;418990;1306;141775;-62
2021/11/21 01:30:50;;;;;;;11.10;9.10;;;;;;;7.23;81.40;98958.73;420006;1312;141853;-63
2021/11/21 01:40:57;;;;;;;9.60;8.20;;;;;;;7.17;81.23;98937.47;419926;1308;142335;-64
2021/11/21 01:51:07;;;;;;;10.20;8.70;;;;;;;7.15;80.99;98927.46;418536;1312;142140;-63
2021/11/21 02:01:14;;;;;;;10.70;8.90;;;;;;;7.14;80.86;98912.23;434158;1312;141313;-63
2021/11/21 02:11:20;;;;;;;9.90;8.10;;;;;;;7.15;80.54;98898.58;432918;1313;199188;-63
2021/11/21 02:21:27;;;;;;;10.90;9.20;;;;;;;7.15;80.06;98887.63;421650;1310;144928;-62
2021/11/21 02:31:33;;;;;;;10.70;8.40;;;;;;;7.13;79.54;98879.74;432881;1309;140572;-65
2021/11/21 02:41:39;;;;;;;10.60;8.70;;;;;;;7.14;79.51;98877.10;425854;1310;141317;-63
2021/11/21 02:51:45;;;;;;;10.40;8.20;;;;;;;7.12;79.28;98871.62;428790;1312;142168;-64
2021/11/21 03:01:51;;;;;;;12.20;9.80;;;;;;;7.13;79.06;98865.86;430609;1307;141938;-64
2021/11/21 03:12:00;;;;;;;15.20;9.80;;;;;;;7.11;78.89;98859.37;429178;1312;140935;-65
2021/11/21 03:22:07;;;;;;;11.10;9.00;;;;;;;7.10;78.52;98845.84;432965;1307;325275;-65
2021/11/21 03:32:13;;;;;;;11.80;10.20;;;;;;;7.11;78.12;98837.95;426725;1312;140690;-64
2021/11/21 03:42:19;;;;;;;14.80;11.90;;;;;;;7.11;78.12;98829.02;428112;1312;142045;-64
2021/11/21 03:52:25;;;;;;;16.80;11.60;;;;;;;7.11;77.83;98827.14;420823;1312;142291;-64
2021/11/21 04:02:32;;;;;;;14.70;10.40;;;;;;;7.09;77.79;98815.64;426329;1313;142270;-63
2021/11/21 04:12:38;;;;;;;13.10;11.10;;;;;;;7.05;77.76;98806.64;421745;1313;141729;-65
2021/11/21 04:22:44;;;;;;;13.80;10.60;;;;;;;7.02;77.71;98804.52;428135;1312;141791;-65
2021/11/21 04:32:50;;;;;;;16.40;11.60;;;;;;;7.00;77.68;98797.02;434267;1309;141718;-65
2021/11/21 04:42:56;;;;;;;14.60;12.60;;;;;;;6.98;77.66;98783.21;435064;1315;144068;-65
2021/11/21 04:53:02;;;;;;;15.20;11.50;;;;;;;6.98;77.64;98782.02;434184;1309;143566;-64
2021/11/21 05:03:08;;;;;;;15.70;11.60;;;;;;;6.97;77.67;98773.56;428497;1309;142301;-64
2021/11/21 05:13:14;;;;;;;14.00;10.00;;;;;;;6.92;77.68;98771.76;435273;1309;141499;-65
2021/11/21 05:23:20;;;;;;;14.10;11.40;;;;;;;6.90;77.66;98772.73;433812;1309;144284;-64
2021/11/21 05:33:26;;;;;;;13.50;10.60;;;;;;;6.87;77.85;98764.23;427140;1313;141344;-64
2021/11/21 05:43:32;;;;;;;14.30;12.30;;;;;;;6.83;77.77;98751.98;434926;1309;143923;-62
2021/11/21 05:53:38;;;;;;;15.50;12.50;;;;;;;6.78;77.76;98743.05;433058;1310;143883;-61
2021/11/21 06:03:44;;;;;;;14.10;10.40;;;;;;;6.74;77.78;98727.28;424710;1313;208837;-63
2021/11/21 06:13:51;;;;;;;13.60;10.10;;;;;;;6.72;77.78;98716.96;419671;1314;140271;-63
2021/11/21 06:23:57;;;;;;;13.60;11.80;;;;;;;6.70;77.71;98712.23;428795;1315;142492;-64
2021/11/21 06:34:03;;;;;;;16.80;12.90;;;;;;;6.69;77.77;98709.64;433268;1312;142334;-64
2021/11/21 06:44:10;;;;;;;17.20;14.50;;;;;;;6.71;77.67;98706.77;423815;1315;145997;-64
2021/11/21 06:54:17;;;;;;;14.30;12.80;;;;;;;6.69;77.79;98714.90;430362;1311;142612;-64
2021/11/21 07:04:24;;;;;;;16.10;11.80;;;;;;;6.69;77.73;98708.95;427215;1307;142541;-63
2021/11/21 07:14:30;;;;;;;20.10;14.50;;;;;;;6.73;77.73;98702.65;426248;1315;141914;-64
2021/11/21 07:24:36;;;;;;;16.60;13.30;;;;;;;6.75;77.53;98696.62;429408;1312;141860;-63
2021/11/21 07:34:43;;;;;;;15.80;12.70;;;;;;;6.78;77.45;98703.72;422361;1310;142105;-63
2021/11/21 07:44:50;;;;;;;15.30;11.90;;;;;;;6.81;77.38;98703.16;432749;1312;142278;-63
2021/11/21 07:54:56;;;;;;;16.10;13.70;;;;;;;6.89;77.42;98692.92;434891;1312;144150;-63
2021/11/21 08:05:02;;;;;;;18.90;13.80;;;;;;;6.96;77.19;98680.37;434883;1312;142405;-64
2021/11/21 08:15:11;;;;;;;19.90;15.10;;;;;;;7.00;77.22;98682.14;434143;1308;143000;-63
2021/11/21 08:25:18;;;;;;;20.10;15.50;;;;;;;7.07;76.84;98679.47;427782;1309;141776;-63
2021/11/21 08:35:24;;;;;;;17.70;13.70;;;;;;;7.08;76.79;98671.37;422201;1310;143281;-63
2021/11/21 08:45:32;;;;;;;18.40;12.80;;;;;;;7.10;76.84;98671.09;422136;1309;145393;-63
2021/11/21 08:55:38;;;;;;;15.10;13.40;;;;;;;7.05;76.68;98674.54;435004;1309;142437;-63
2021/11/21 09:05:46;;;;;;;13.80;12.00;;;;;;;7.05;76.66;98682.02;432534;1309;142425;-64
2021/11/21 09:15:53;;;;;;;14.70;12.10;;;;;;;7.11;76.65;98680.92;431622;1309;142040;-64
2021/11/21 09:26:00;;;;;;;16.20;12.50;;;;;;;7.12;76.60;98676.39;434023;1310;143359;-63
2021/11/21 09:36:08;;;;;;;18.80;13.90;;;;;;;7.04;76.55;98668.35;423985;1312;141947;-63
2021/11/21 09:46:16;;;;;;;17.50;13.30;;;;;;;7.03;76.70;98664.95;433264;1310;141308;-64
2021/11/21 09:56:22;;;;;;;15.70;13.10;;;;;;;7.01;76.65;98661.05;434273;1310;147144;-65
2021/11/21 10:06:35;;;;;;;17.10;14.00;;;;;;;7.05;76.51;98649.52;431236;1309;142566;-65
2021/11/21 10:16:41;;;;;;;21.50;14.30;;;;;;;7.06;76.57;98646.95;434021;1312;142533;-65
2021/11/21 10:26:50;;;;;;;24.60;14.90;;;;;;;7.08;76.65;98641.46;433725;1310;142044;-63
2021/11/21 10:37:07;;;;;;;17.20;13.00;;;;;;;7.12;76.53;98643.94;424922;1309;141377;-63
2021/11/21 10:47:43;;;;;;;18.40;14.80;;;;;;;7.06;76.40;98646.27;421878;1310;142016;-69
2021/11/21 10:57:49;;;;;;;22.30;15.80;;;;;;;7.01;76.52;98638.47;427697;1310;141267;-69
2021/11/21 11:07:57;;;;;;;21.50;16.10;;;;;;;7.00;76.59;98634.17;435651;1310;141574;-70
2021/11/21 11:18:02;;;;;;;;;;;;;;;7.03;76.57;98632.02;419126;1310;10003207;-70
2021/11/21 11:28:20;;;;;;;18.20;14.70;;;;;;;7.07;76.49;98632.16;433902;1306;128966;-70
2021/11/21 11:38:26;;;;;;;;;;;;;;;7.08;76.50;98630.13;434248;1309;142297;-69
2021/11/21 11:48:40;;;;;;;21.90;15.60;;;;;;;7.04;76.56;98627.09;435048;1310;128318;-61
2021/11/21 11:58:49;;;;;;;19.50;14.70;;;;;;;7.08;76.70;98625.80;434970;1309;142477;-61
2021/11/21 12:09:22;;;;;;;23.00;13.50;;;;;;;7.16;76.64;98623.70;431807;1312;142876;-60
2021/11/21 12:19:42;;;;;;;18.70;13.50;;;;;;;7.36;76.36;98625.54;423519;1309;141144;-61
2021/11/21 12:30:04;;;;;;;19.50;14.10;;;;;;;7.51;76.20;98616.91;427278;1309;144288;-61
2021/11/21 12:40:19;;;;;;;16.60;12.70;;;;;;;7.72;76.03;98615.48;424803;1309;142343;-62
2021/11/21 12:50:28;;;;;;;16.90;12.90;;;;;;;7.79;75.39;98618.04;432184;1300;141585;-64
2021/11/21 13:00:36;;;;;;;19.80;13.40;;;;;;;7.69;75.53;98620.45;431809;1306;142749;-65
2021/11/21 13:10:43;;;;;;;17.50;13.10;;;;;;;7.58;75.46;98616.60;432270;1309;142214;-64
2021/11/21 13:20:53;;;;;;;16.90;12.70;;;;;;;7.47;75.53;98614.77;427137;1309;190436;-65
2021/11/21 13:31:01;;;;;;;18.70;13.50;;;;;;;7.42;75.83;98611.38;424535;1306;141230;-65
2021/11/21 13:41:05;;;;;;;;;;;;;;;7.38;75.69;98617.60;433156;1306;142218;-65
2021/11/21 13:51:28;;;;;;;19.60;13.10;;;;;;;7.34;75.78;98626.02;432930;1310;127598;-65
2021/11/21 14:01:46;;;;;;;16.00;12.20;;;;;;;7.30;75.88;98637.45;435856;1309;143356;-66
2021/11/21 14:12:02;;;;;;;18.80;14.10;;;;;;;7.23;76.02;98640.00;434695;1309;141338;-66
2021/11/21 14:22:11;;;;;;;19.10;12.90;;;;;;;7.14;76.18;98645.90;434800;1307;142330;-65
2021/11/21 14:32:18;;;;;;;27.00;14.50;;;;;;;7.11;76.10;98652.61;425259;1309;140873;-66
2021/11/21 14:42:28;;;;;;;19.50;14.00;;;;;;;7.01;76.17;98658.25;421120;1309;141502;-66
2021/11/21 14:52:35;;;;;;;20.70;16.20;;;;;;;6.92;76.41;98670.16;430963;1303;141685;-65
2021/11/21 15:02:42;;;;;;;29.00;15.00;;;;;;;6.80;76.63;98680.64;418731;1310;140859;-64
2021/11/21 15:12:49;;;;;;;19.70;13.90;;;;;;;6.69;76.83;98684.63;430910;1309;141147;-65
2021/11/21 15:22:55;;;;;;;20.40;15.70;;;;;;;6.65;77.09;98688.73;421156;1309;142134;-65
2021/11/21 15:33:01;;;;;;;20.60;13.90;;;;;;;6.60;77.12;98697.02;433945;1309;142754;-65
2021/11/21 15:43:07;;;;;;;21.90;16.00;;;;;;;6.57;77.33;98694.38;435884;1310;142363;-65
2021/11/21 15:53:13;;;;;;;25.00;15.20;;;;;;;6.55;77.46;98696.59;434723;1309;141941;-65
2021/11/21 16:03:21;;;;;;;22.50;16.40;;;;;;;6.56;77.53;98705.75;435127;1309;142090;-65
2021/11/21 16:13:27;;;;;;;22.20;15.70;;;;;;;6.55;77.75;98714.14;435904;1309;142594;-65
2021/11/21 16:23:35;;;;;;;24.60;15.50;;;;;;;6.43;78.48;98719.55;435881;1309;142934;-65
2021/11/21 16:33:41;;;;;;;23.90;18.30;;;;;;;6.41;79.39;98726.48;425269;1310;141243;-66
2021/11/21 16:43:48;;;;;;;26.40;18.30;;;;;;;6.17;79.99;98728.79;433082;1309;142323;-69
2021/11/21 16:53:54;;;;;;;23.50;17.00;;;;;;;6.08;80.73;98735.04;419550;1309;142220;-67
2021/11/21 17:04:21;;;;;;;24.40;17.10;;;;;;;6.02;81.16;98742.86;419357;1309;143101;-68
2021/11/21 17:14:29;;;;;;;28.50;19.30;;;;;;;5.93;81.62;98747.55;428656;1309;144199;-65
2021/11/21 17:24:37;;;;;;;32.10;23.20;;;;;;;5.85;82.08;98755.46;435091;1309;141180;-66
2021/11/21 17:34:43;;;;;;;25.30;18.10;;;;;;;5.78;82.49;98765.80;435870;1307;141545;-60
2021/11/21 17:44:49;;;;;;;29.10;20.10;;;;;;;5.79;82.80;98773.20;430104;1307;142605;-61
2021/11/21 17:54:59;;;;;;;28.60;18.40;;;;;;;5.81;82.89;98777.41;423539;1306;142876;-69
2021/11/21 18:05:06;;;;;;;26.80;19.10;;;;;;;5.80;83.12;98786.30;433342;1309;141636;-61
2021/11/21 18:15:12;;;;;;;31.20;20.60;;;;;;;5.77;83.24;98794.83;435189;1309;141778;-61
2021/11/21 18:25:20;;;;;;;25.00;17.60;;;;;;;5.75;83.36;98801.16;433485;1309;142007;-62
2021/11/21 18:35:27;;;;;;;29.30;18.40;;;;;;;5.73;83.64;98807.85;432765;1309;141419;-61
2021/11/21 18:45:33;;;;;;;29.10;20.90;;;;;;;5.76;83.96;98813.41;435179;1307;142223;-62
2021/11/21 18:55:53;;;;;;;27.20;18.20;;;;;;;5.83;84.19;98823.66;435904;1309;142098;-61
2021/11/21 19:06:00;;;;;;;29.50;19.40;;;;;;;5.88;84.17;98837.08;432113;1306;142590;-63
2021/11/21 19:16:08;;;;;;;32.50;19.30;;;;;;;5.91;84.47;98849.11;423683;1312;143287;-62
2021/11/21 19:26:14;;;;;;;;;;;;;;;5.89;84.46;98868.30;421687;1309;182888;-62
2021/11/21 19:36:21;;;;;;;25.40;18.00;;;;;;;5.93;84.64;98875.59;435479;1309;127887;-62
2021/11/21 19:46:28;;;;;;;27.10;19.30;;;;;;;5.90;84.49;98887.69;434827;1309;142891;-63
2021/11/21 19:56:35;;;;;;;22.30;15.90;;;;;;;5.83;84.66;98897.67;434009;1308;144406;-62
2021/11/21 20:06:42;;;;;;;19.40;14.80;;;;;;;5.77;84.72;98895.57;435300;1306;141722;-63
2021/11/21 20:16:49;;;;;;;18.20;13.70;;;;;;;5.68;84.90;98901.95;432287;1309;141452;-63
2021/11/21 20:26:55;;;;;;;18.00;14.30;;;;;;;5.77;85.20;98913.61;433036;1312;144108;-64
2021/11/21 20:37:02;;;;;;;25.30;16.20;;;;;;;5.89;85.09;98923.02;430084;1309;142392;-63
2021/11/21 20:47:09;;;;;;;25.50;18.00;;;;;;;5.95;85.11;98931.58;433483;1307;144262;-63
2021/11/21 20:57:16;;;;;;;29.30;20.60;;;;;;;6.01;85.14;98946.89;418033;1309;10001317;-61
2021/11/21 21:07:22;;;;;;;31.00;22.20;;;;;;;6.04;85.33;98952.30;433129;1307;143502;-62
2021/11/21 21:17:28;;;;;;;30.30;22.50;;;;;;;6.04;85.27;98959.23;436003;1309;142032;-61
2021/11/21 21:27:35;;;;;;;29.60;21.60;;;;;;;6.03;85.19;98961.72;430938;1309;142269;-63
2021/11/21 21:37:41;;;;;;;29.70;19.80;;;;;;;6.00;85.24;98961.52;420565;1309;142234;-62
2021/11/21 21:47:55;;;;;;;31.10;21.10;;;;;;;5.95;85.34;98970.13;419979;1309;141380;-64
2021/11/21 21:58:02;;;;;;;29.50;21.30;;;;;;;5.90;85.60;98975.27;426747;1309;142255;-63
2021/11/21 22:08:10;;;;;;;33.30;21.90;;;;;;;5.93;85.51;98975.98;419948;1310;141240;-63
2021/11/21 22:18:16;;;;;;;28.80;19.20;;;;;;;5.91;85.66;98987.20;432393;1309;142426;-63
2021/11/21 22:28:23;;;;;;;27.30;20.20;;;;;;;5.94;85.62;98988.61;421150;1312;143337;-63
2021/11/21 22:38:32;;;;;;;30.10;21.30;;;;;;;5.97;85.52;98994.17;422346;1309;142764;-61
2021/11/21 22:48:38;;;;;;;33.80;22.60;;;;;;;6.01;85.43;99002.12;420982;1306;142374;-62
2021/11/21 22:58:44;;;;;;;28.70;19.50;;;;;;;6.05;85.52;99009.94;420381;1310;145968;-62
2021/11/21 23:08:52;;;;;;;29.40;19.60;;;;;;;6.02;85.38;99015.63;419991;1309;142557;-67
2021/11/21 23:19:00;;;;;;;30.80;21.10;;;;;;;5.94;85.33;99012.56;435915;1313;142316;-68
2021/11/21 23:29:06;;;;;;;28.50;18.40;;;;;;;5.99;85.38;99013.71;435156;1314;141532;-70
2021/11/21 23:39:12;;;;;;;28.50;19.20;;;;;;;6.08;85.26;99021.61;429663;1312;142158;-66
2021/11/21 23:49:19;;;;;;;31.20;20.90;;;;;;;6.12;85.22;99027.45;424566;1313;141009;-71
2021/11/21 23:59:25;;;;;;;27.40;18.30;;;;;;;6.08;85.05;99044.69;425873;1309;141556;-69
